createdAt,value
2023-03-26T00:01:46.474Z,7.50
2023-03-26T00:04:13.932Z,2.70
2023-03-26T00:06:41.737Z,3.73
2023-03-26T00:09:13.260Z,3.97
2023-03-26T00:11:41.348Z,4.00
2023-03-26T00:14:13.611Z,3.57
2023-03-26T00:16:43.991Z,4.37
2023-03-26T00:19:13.765Z,1.17
2023-03-26T00:21:41.569Z,6.63
2023-03-26T00:24:15.264Z,1.87
2023-03-26T00:26:43.564Z,2.67
2023-03-26T00:29:13.483Z,3.80
2023-03-26T00:31:45.925Z,3.50
2023-03-26T00:34:15.573Z,2.47
2023-03-26T00:36:43.848Z,4.90
2023-03-26T00:39:11.043Z,3.83
2023-03-26T00:41:43.084Z,3.70
2023-03-26T00:44:10.958Z,5.10
2023-03-26T00:46:38.238Z,3.77
2023-03-26T00:49:05.821Z,3.87
2023-03-26T00:51:34.274Z,3.80
2023-03-26T00:54:01.539Z,6.33
2023-03-26T00:56:28.679Z,4.43
2023-03-26T00:58:55.776Z,7.63
2023-03-26T01:01:30.430Z,2.63
2023-03-26T01:04:19.555Z,2.97
2023-03-26T01:06:46.914Z,6.10
2023-03-26T01:09:26.304Z,6.03
2023-03-26T01:11:53.613Z,3.27
2023-03-26T01:14:25.894Z,4.53
2023-03-26T01:16:58.409Z,4.17
2023-03-26T01:20:13.067Z,1.60
2023-03-26T01:22:52.199Z,4.53
2023-03-26T01:25:21.982Z,2.17
2023-03-26T01:27:53.675Z,5.57
2023-03-26T01:31:13.146Z,2.80
2023-03-26T01:34:30.533Z,1.37
2023-03-26T01:37:13.272Z,2.03
2023-03-26T01:40:18.069Z,2.63
2023-03-26T01:43:22.548Z,3.40
2023-03-26T01:45:51.356Z,2.20
2023-03-26T01:48:18.888Z,2.00
2023-03-26T01:50:46.098Z,2.10
2023-03-26T01:53:14.706Z,4.27
2023-03-26T01:56:20.216Z,3.47
2023-03-26T01:59:44.665Z,5.10
2023-03-26T02:02:27.760Z,1.80
2023-03-26T02:05:20.699Z,3.63
2023-03-26T02:08:20.429Z,3.10
2023-03-26T02:10:57.666Z,2.97
2023-03-26T02:13:26.298Z,2.90
2023-03-26T02:16:08.432Z,4.20
2023-03-26T02:18:39.023Z,1.83
2023-03-26T02:21:21.609Z,2.93
2023-03-26T02:23:57.636Z,2.90
2023-03-26T02:26:25.578Z,2.27
2023-03-26T02:28:52.649Z,4.33
2023-03-26T02:31:19.785Z,3.03
2023-03-26T02:33:47.630Z,4.23
2023-03-26T02:36:16.083Z,3.97
2023-03-26T02:38:43.295Z,4.07
2023-03-26T02:41:10.764Z,2.80
2023-03-26T02:43:37.863Z,4.83
2023-03-26T02:46:05.197Z,4.13
2023-03-26T02:48:34.621Z,3.03
2023-03-26T02:51:03.179Z,2.80
2023-03-26T02:53:30.560Z,0.83
2023-03-26T02:55:59.838Z,4.57
2023-03-26T02:58:30.045Z,1.90
2023-03-26T03:00:57.350Z,0.70
2023-03-26T03:03:27.442Z,3.17
2023-03-26T03:05:57.142Z,5.27
2023-03-26T03:08:28.239Z,6.40
2023-03-26T03:11:09.230Z,3.30
2023-03-26T03:13:36.382Z,2.83
2023-03-26T03:16:05.944Z,2.33
2023-03-26T03:18:33.255Z,4.43
2023-03-26T03:21:04.127Z,3.13
2023-03-26T03:23:31.618Z,3.10
2023-03-26T03:25:59.408Z,4.90
2023-03-26T03:28:26.676Z,4.97
2023-03-26T03:30:53.806Z,4.60
2023-03-26T03:33:21.714Z,1.50
2023-03-26T03:35:50.500Z,2.93
2023-03-26T03:38:19.226Z,4.53
2023-03-26T03:40:46.391Z,5.40
2023-03-26T03:43:13.503Z,3.90
2023-03-26T03:45:40.637Z,6.10
2023-03-26T03:48:07.870Z,5.03
2023-03-26T03:50:35.781Z,4.23
2023-03-26T03:53:05.613Z,5.90
2023-03-26T03:55:32.806Z,5.53
2023-03-26T03:58:00.051Z,3.80
2023-03-26T04:00:27.215Z,4.17
2023-03-26T04:02:54.546Z,6.13
2023-03-26T04:05:22.143Z,6.13
2023-03-26T04:07:50.198Z,2.23
2023-03-26T04:10:17.445Z,6.10
2023-03-26T04:12:44.595Z,1.97
2023-03-26T04:15:11.869Z,2.00
2023-03-26T04:17:42.663Z,4.67
2023-03-26T04:20:16.151Z,3.23
2023-03-26T04:22:44.576Z,2.47
2023-03-26T04:25:13.352Z,5.77
2023-03-26T04:27:43.276Z,5.10
2023-03-26T04:30:20.550Z,3.43
2023-03-26T04:32:48.930Z,1.50
2023-03-26T04:35:18.220Z,4.70
2023-03-26T04:37:48.471Z,1.30
2023-03-26T04:40:22.083Z,6.03
2023-03-26T04:42:49.256Z,3.37
2023-03-26T04:45:24.837Z,8.00
2023-03-26T04:47:52.027Z,6.83
2023-03-26T04:50:19.282Z,2.33
2023-03-26T04:52:46.531Z,4.27
2023-03-26T04:55:38.319Z,3.17
2023-03-26T04:58:05.862Z,5.60
2023-03-26T05:00:32.950Z,5.27
2023-03-26T05:03:01.484Z,3.77
2023-03-26T05:05:29.847Z,3.90
2023-03-26T05:07:56.934Z,5.27
2023-03-26T05:10:24.500Z,2.03
2023-03-26T05:12:54.043Z,7.00
2023-03-26T05:15:21.325Z,3.07
2023-03-26T05:17:48.622Z,4.70
2023-03-26T05:20:26.301Z,6.00
2023-03-26T05:22:54.029Z,5.43
2023-03-26T05:25:21.495Z,4.80
2023-03-26T05:27:48.826Z,8.77
2023-03-26T05:30:20.691Z,6.23
2023-03-26T05:32:49.501Z,5.77
2023-03-26T05:35:17.867Z,2.83
2023-03-26T05:37:47.208Z,5.53
2023-03-26T05:40:17.122Z,5.17
2023-03-26T05:42:45.569Z,3.73
2023-03-26T05:45:15.545Z,5.13
2023-03-26T05:47:43.182Z,3.73
2023-03-26T05:50:11.229Z,5.03
2023-03-26T05:52:38.543Z,5.30
2023-03-26T05:55:08.067Z,2.90
2023-03-26T05:57:35.608Z,4.27
2023-03-26T06:00:04.612Z,5.27
2023-03-26T06:02:31.765Z,7.27
2023-03-26T06:04:58.908Z,2.97
2023-03-26T06:07:27.083Z,3.60
2023-03-26T06:09:54.385Z,3.93
2023-03-26T06:12:21.448Z,4.07
2023-03-26T06:14:48.640Z,4.37
2023-03-26T06:17:15.726Z,2.53
2023-03-26T06:19:42.788Z,2.40
2023-03-26T06:22:09.902Z,5.73
2023-03-26T06:24:37.008Z,1.97
2023-03-26T06:27:04.131Z,2.97
2023-03-26T06:29:31.329Z,3.47
2023-03-26T06:32:09.188Z,1.80
2023-03-26T06:34:43.765Z,3.60
2023-03-26T06:37:10.941Z,2.70
2023-03-26T06:39:38.104Z,4.73
2023-03-26T06:42:05.407Z,3.40
2023-03-26T06:44:32.550Z,6.30
2023-03-26T06:46:59.724Z,3.60
2023-03-26T06:49:26.833Z,3.43
2023-03-26T06:51:53.972Z,2.13
2023-03-26T06:54:21.282Z,5.77
2023-03-26T06:56:51.449Z,4.60
2023-03-26T06:59:18.833Z,2.73
2023-03-26T07:01:48.551Z,4.53
2023-03-26T07:04:15.922Z,3.30
2023-03-26T07:06:43.193Z,3.03
2023-03-26T07:09:10.323Z,5.57
2023-03-26T07:11:37.410Z,3.73
2023-03-26T07:14:04.505Z,4.20
2023-03-26T07:16:31.699Z,1.17
2023-03-26T07:18:58.844Z,1.90
2023-03-26T07:21:26.357Z,3.47
2023-03-26T07:23:55.074Z,3.47
2023-03-26T07:27:09.722Z,2.37
2023-03-26T07:29:58.877Z,4.27
2023-03-26T07:32:55.810Z,4.03
2023-03-26T07:35:56.675Z,7.17
2023-03-26T07:38:41.835Z,2.80
2023-03-26T07:41:44.608Z,4.10
2023-03-26T07:45:00.550Z,1.30
2023-03-26T07:47:34.720Z,4.23
2023-03-26T07:50:02.952Z,3.20
2023-03-26T07:52:30.596Z,3.03
2023-03-26T07:54:58.017Z,2.70
2023-03-26T07:57:52.326Z,1.87
2023-03-26T08:00:26.558Z,1.80
2023-03-26T08:03:14.440Z,3.97
2023-03-26T08:06:27.702Z,2.20
2023-03-26T08:09:57.398Z,5.03
2023-03-26T08:12:52.450Z,4.43
2023-03-26T08:16:08.177Z,3.00
2023-03-26T08:19:11.245Z,3.87
2023-03-26T08:21:53.457Z,3.03
2023-03-26T08:25:17.724Z,4.40
2023-03-26T08:28:25.746Z,4.70
2023-03-26T08:30:57.658Z,5.87
2023-03-26T08:33:28.415Z,3.93
2023-03-26T08:35:55.640Z,2.23
2023-03-26T08:38:23.603Z,2.27
2023-03-26T08:41:08.673Z,3.20
2023-03-26T08:44:25.876Z,3.10
2023-03-26T08:47:27.342Z,2.97
2023-03-26T08:50:31.419Z,3.27
2023-03-26T08:53:44.529Z,3.40
2023-03-26T08:56:40.171Z,4.97
2023-03-26T09:00:10.902Z,11.57
2023-03-26T09:03:33.629Z,4.07
2023-03-26T09:07:16.366Z,7.50
2023-03-26T09:10:43.062Z,5.97
2023-03-26T09:13:53.388Z,6.10
2023-03-26T09:16:48.904Z,4.30
2023-03-26T09:19:56.269Z,7.67
2023-03-26T09:22:47.661Z,6.23
2023-03-26T09:26:07.444Z,3.30
2023-03-26T09:29:10.352Z,8.03
2023-03-26T09:32:20.512Z,5.33
2023-03-26T09:35:14.682Z,4.50
2023-03-26T09:38:11.276Z,9.80
2023-03-26T09:41:21.856Z,5.83
2023-03-26T09:44:45.334Z,5.73
2023-03-26T09:47:46.068Z,4.87
2023-03-26T09:50:57.263Z,6.97
2023-03-26T09:54:04.673Z,7.87
2023-03-26T09:57:06.378Z,6.53
2023-03-26T10:00:01.617Z,5.53
2023-03-26T10:02:47.642Z,6.07
2023-03-26T10:05:44.574Z,5.30
2023-03-26T10:08:31.640Z,5.10
2023-03-26T10:11:43.796Z,8.90
2023-03-26T10:14:22.802Z,7.53
2023-03-26T10:17:52.679Z,6.60
2023-03-26T10:21:42.524Z,8.30
2023-03-26T10:24:31.245Z,7.50
2023-03-26T10:27:53.543Z,9.93
2023-03-26T10:30:55.977Z,5.03
2023-03-26T10:33:40.129Z,8.47
2023-03-26T10:36:29.501Z,7.73
2023-03-26T10:39:36.886Z,9.63
2023-03-26T10:42:31.269Z,6.40
2023-03-26T10:45:28.918Z,8.10
2023-03-26T10:48:35.500Z,8.50
2023-03-26T10:51:28.901Z,6.90
2023-03-26T10:54:20.094Z,7.03
2023-03-26T10:56:52.269Z,6.30
2023-03-26T10:59:19.520Z,9.33
2023-03-26T11:02:36.546Z,5.73
2023-03-26T11:05:45.724Z,4.90
2023-03-26T11:09:05.168Z,6.03
2023-03-26T11:12:26.977Z,4.03
2023-03-26T11:15:14.664Z,5.90
2023-03-26T11:17:56.954Z,7.03
2023-03-26T11:21:18.667Z,6.00
2023-03-26T11:24:32.638Z,5.63
2023-03-26T11:27:17.426Z,5.80
2023-03-26T11:30:04.225Z,5.60
2023-03-26T11:32:46.705Z,6.83
2023-03-26T11:35:41.740Z,4.10
2023-03-26T11:38:50.167Z,6.33
2023-03-26T11:41:22.851Z,5.97
2023-03-26T11:44:08.874Z,8.13
2023-03-26T11:46:43.686Z,5.70
2023-03-26T11:49:16.947Z,7.17
2023-03-26T11:51:47.876Z,4.50
2023-03-26T11:54:16.376Z,6.60
2023-03-26T11:57:13.000Z,4.87
2023-03-26T12:00:20.902Z,4.53
2023-03-26T12:02:49.420Z,9.00
2023-03-26T12:05:29.435Z,7.93
2023-03-26T12:08:04.292Z,6.37
2023-03-26T12:10:42.632Z,3.20
2023-03-26T12:13:21.959Z,4.33
2023-03-26T12:15:50.274Z,7.30
2023-03-26T12:18:28.554Z,5.63
2023-03-26T12:21:17.134Z,4.90
2023-03-26T12:24:01.441Z,3.13
2023-03-26T12:26:46.369Z,4.33
2023-03-26T12:29:18.995Z,3.20
2023-03-26T12:31:56.176Z,2.70
2023-03-26T12:34:35.264Z,2.23
2023-03-26T12:37:06.116Z,4.07
2023-03-26T12:40:09.973Z,2.03
2023-03-26T12:44:47.708Z,6.70
2023-03-26T12:45:40.698Z,4.50
2023-03-26T12:48:12.316Z,3.93
2023-03-26T12:51:26.335Z,8.33
2023-03-26T12:54:34.576Z,5.20
2023-03-26T12:57:30.621Z,5.20
2023-03-26T13:00:16.286Z,5.70
2023-03-26T13:03:19.992Z,6.30
2023-03-26T13:06:59.486Z,3.37
2023-03-26T13:10:10.744Z,5.67
2023-03-26T13:12:46.351Z,3.60
2023-03-26T13:15:46.943Z,2.63
2023-03-26T13:18:56.699Z,4.87
2023-03-26T13:22:04.741Z,4.17
2023-03-26T13:24:58.774Z,6.70
2023-03-26T13:27:35.841Z,3.97
2023-03-26T13:30:51.168Z,3.77
2023-03-26T13:34:09.511Z,5.67
2023-03-26T13:36:59.524Z,3.27
2023-03-26T13:40:13.135Z,2.83
2023-03-26T13:43:04.785Z,5.13
2023-03-26T13:46:20.699Z,4.57
2023-03-26T13:49:17.156Z,3.20
2023-03-26T13:52:14.276Z,3.67
2023-03-26T13:55:18.762Z,4.10
2023-03-26T13:58:38.573Z,2.97
2023-03-26T14:01:34.657Z,2.97
2023-03-26T14:04:39.715Z,3.53
2023-03-26T14:07:18.017Z,2.70
2023-03-26T14:10:34.346Z,3.80
2023-03-26T14:13:19.588Z,5.07
2023-03-26T14:16:03.917Z,2.53
2023-03-26T14:19:11.912Z,3.97
2023-03-26T14:22:10.539Z,3.57
2023-03-26T14:25:48.985Z,2.77
2023-03-26T14:29:18.856Z,7.50
2023-03-26T14:32:37.873Z,2.83
2023-03-26T14:35:39.652Z,2.73
2023-03-26T14:38:46.023Z,1.83
2023-03-26T14:41:26.258Z,7.40
2023-03-26T14:44:11.797Z,2.80
2023-03-26T14:47:20.148Z,2.93
2023-03-26T14:50:42.738Z,5.33
2023-03-26T14:53:35.125Z,6.50
2023-03-26T14:56:49.740Z,5.10
2023-03-26T15:00:03.285Z,3.73
2023-03-26T15:03:49.851Z,1.33
2023-03-26T15:06:48.481Z,3.60
2023-03-26T15:09:49.193Z,3.67
2023-03-26T15:12:36.456Z,2.07
2023-03-26T15:15:44.145Z,1.27
2023-03-26T15:19:18.730Z,2.20
2023-03-26T15:22:51.179Z,2.30
2023-03-26T15:25:47.568Z,1.63
2023-03-26T15:28:58.708Z,3.33
2023-03-26T15:32:31.426Z,2.47
2023-03-26T15:35:28.404Z,4.27
2023-03-26T15:38:56.540Z,4.33
2023-03-26T15:41:46.939Z,2.00
2023-03-26T15:44:43.664Z,2.43
2023-03-26T15:47:57.326Z,4.93
2023-03-26T15:51:07.886Z,2.73
2023-03-26T15:54:02.510Z,2.70
2023-03-26T15:57:27.519Z,4.70
2023-03-26T16:00:25.983Z,4.27
2023-03-26T16:03:11.313Z,6.20
2023-03-26T16:06:02.160Z,3.47
2023-03-26T16:09:03.386Z,6.70
2023-03-26T16:11:57.729Z,2.70
2023-03-26T16:14:48.284Z,4.10
2023-03-26T16:17:25.970Z,2.77
2023-03-26T16:20:34.915Z,3.27
2023-03-26T16:23:06.119Z,5.57
2023-03-26T16:26:13.914Z,3.47
2023-03-26T16:28:46.787Z,3.53
2023-03-26T16:31:23.495Z,5.83
2023-03-26T16:34:08.267Z,8.90
2023-03-26T16:36:37.388Z,4.80
2023-03-26T16:39:04.880Z,3.30
2023-03-26T16:41:50.148Z,3.50
2023-03-26T16:44:47.382Z,3.20
2023-03-26T16:48:20.497Z,1.63
2023-03-26T16:51:17.235Z,3.43
2023-03-26T16:54:42.964Z,5.23
2023-03-26T16:57:56.217Z,3.53
2023-03-26T17:00:45.014Z,4.53
2023-03-26T17:04:09.564Z,4.40
2023-03-26T17:07:17.610Z,2.47
2023-03-26T17:09:56.267Z,3.37
2023-03-26T17:12:44.356Z,4.50
2023-03-26T17:15:22.746Z,6.60
2023-03-26T17:18:47.554Z,3.70
2023-03-26T17:21:45.732Z,5.33
2023-03-26T17:24:37.033Z,5.00
2023-03-26T17:27:49.956Z,5.20
2023-03-26T17:31:03.434Z,4.23
2023-03-26T17:33:38.743Z,7.87
2023-03-26T17:36:11.978Z,7.53
2023-03-26T17:38:39.073Z,5.63
2023-03-26T17:41:08.817Z,3.90
2023-03-26T17:43:51.887Z,6.13
2023-03-26T17:46:42.708Z,4.47
2023-03-26T17:49:12.730Z,3.90
2023-03-26T17:52:13.105Z,6.80
2023-03-26T17:54:46.902Z,6.13
2023-03-26T17:57:23.744Z,6.03
2023-03-26T17:59:58.862Z,3.83
2023-03-26T18:02:43.626Z,5.97
2023-03-26T18:05:16.209Z,6.53
2023-03-26T18:08:29.742Z,5.23
2023-03-26T18:11:36.567Z,3.93
2023-03-26T18:14:46.781Z,4.83
2023-03-26T18:17:14.160Z,7.87
2023-03-26T18:20:02.373Z,11.07
2023-03-26T18:22:30.992Z,9.63
2023-03-26T18:25:03.060Z,14.27
2023-03-26T18:27:39.086Z,23.67
2023-03-26T18:30:23.485Z,21.77
2023-03-26T18:33:14.075Z,26.37
2023-03-26T18:35:52.011Z,19.70
2023-03-26T18:38:35.855Z,16.40
2023-03-26T18:41:07.863Z,15.63
2023-03-26T18:43:44.104Z,10.17
2023-03-26T18:46:14.675Z,7.73
2023-03-26T18:48:42.566Z,6.23
2023-03-26T18:51:10.681Z,8.77
2023-03-26T18:54:04.797Z,8.97
2023-03-26T18:56:43.075Z,7.73
2023-03-26T18:59:34.185Z,9.40
2023-03-26T19:02:11.336Z,7.77
2023-03-26T19:04:39.058Z,6.17
2023-03-26T19:07:14.512Z,8.37
2023-03-26T19:09:43.397Z,7.47
2023-03-26T19:12:37.337Z,6.97
2023-03-26T19:15:18.162Z,10.87
2023-03-26T19:17:53.348Z,6.10
2023-03-26T19:20:29.181Z,9.60
2023-03-26T19:22:57.123Z,6.63
2023-03-26T19:25:30.842Z,13.63
2023-03-26T19:27:59.208Z,12.83
2023-03-26T19:30:39.631Z,12.80
2023-03-26T19:33:20.861Z,10.97
2023-03-26T19:36:04.830Z,13.03
2023-03-26T19:38:44.082Z,13.97
2023-03-26T19:41:35.755Z,12.33
2023-03-26T19:44:25.760Z,13.23
2023-03-26T19:47:26.813Z,8.60
2023-03-26T19:50:13.339Z,17.77
2023-03-26T19:52:40.436Z,8.47
2023-03-26T19:55:24.143Z,10.87
2023-03-26T19:57:51.746Z,17.03
2023-03-26T20:00:19.266Z,11.87
2023-03-26T20:02:47.019Z,12.70
2023-03-26T20:05:29.034Z,15.70
2023-03-26T20:08:00.717Z,15.17
2023-03-26T20:10:28.627Z,14.93
2023-03-26T20:12:55.929Z,13.87
2023-03-26T20:15:31.175Z,8.87
2023-03-26T20:17:58.823Z,12.17
2023-03-26T20:20:27.503Z,9.63
2023-03-26T20:22:55.073Z,12.33
2023-03-26T20:25:33.990Z,13.27
2023-03-26T20:28:01.329Z,20.93
2023-03-26T20:30:37.387Z,18.50
2023-03-26T20:33:12.672Z,5.37
2023-03-26T20:35:41.535Z,13.47
2023-03-26T20:38:09.705Z,16.43
2023-03-26T20:40:38.412Z,19.20
2023-03-26T20:43:12.869Z,13.80
2023-03-26T20:45:41.017Z,14.20
2023-03-26T20:48:11.838Z,13.53
2023-03-26T20:50:50.406Z,12.37
2023-03-26T20:53:18.944Z,17.73
2023-03-26T20:55:46.902Z,13.07
2023-03-26T20:58:31.181Z,13.67
2023-03-26T21:01:01.749Z,16.17
2023-03-26T21:03:29.276Z,15.50
2023-03-26T21:06:02.011Z,10.73
2023-03-26T21:08:36.692Z,11.53
2023-03-26T21:11:16.184Z,18.60
2023-03-26T21:14:40.277Z,15.97
2023-03-26T21:17:17.236Z,19.37
2023-03-26T21:19:46.055Z,17.47
2023-03-26T21:22:40.335Z,14.07
2023-03-26T21:25:47.703Z,14.17
2023-03-26T21:28:46.527Z,14.00
2023-03-26T21:31:24.371Z,16.83
2023-03-26T21:33:52.398Z,21.53
2023-03-26T21:36:20.497Z,14.87
2023-03-26T21:38:48.229Z,13.47
2023-03-26T21:42:04.711Z,11.90
2023-03-26T21:44:34.373Z,20.67
2023-03-26T21:47:02.124Z,12.97
2023-03-26T21:49:29.804Z,15.10
2023-03-26T21:51:57.535Z,13.73
2023-03-26T21:54:33.029Z,12.20
2023-03-26T21:57:40.068Z,16.07
2023-03-26T22:00:23.667Z,15.40
2023-03-26T22:03:48.278Z,11.87
2023-03-26T22:07:07.325Z,12.47
2023-03-26T22:09:36.475Z,14.73
2023-03-26T22:12:06.974Z,14.37
2023-03-26T22:14:34.391Z,13.53
2023-03-26T22:17:01.595Z,19.43
2023-03-26T22:19:30.467Z,12.87
2023-03-26T22:22:00.560Z,13.63
2023-03-26T22:24:28.055Z,13.80
2023-03-26T22:26:55.990Z,13.63
2023-03-26T22:29:23.907Z,14.27
2023-03-26T22:31:51.211Z,13.23
2023-03-26T22:34:19.587Z,9.67
2023-03-26T22:36:50.091Z,13.50
2023-03-26T22:39:22.633Z,12.70
2023-03-26T22:41:49.714Z,19.47
2023-03-26T22:44:20.252Z,9.13
2023-03-26T22:46:52.322Z,10.27
2023-03-26T22:49:19.766Z,11.17
2023-03-26T22:51:47.108Z,7.80
2023-03-26T22:54:14.599Z,7.60
2023-03-26T22:56:41.761Z,6.63
2023-03-26T22:59:08.933Z,9.43
2023-03-26T23:01:36.926Z,6.87
2023-03-26T23:04:07.042Z,8.70
2023-03-26T23:06:34.281Z,8.87
2023-03-26T23:09:01.460Z,6.97
2023-03-26T23:11:30.556Z,8.27
2023-03-26T23:13:57.714Z,10.00
2023-03-26T23:16:24.975Z,4.97
2023-03-26T23:18:52.446Z,8.77
2023-03-26T23:21:22.186Z,7.27
2023-03-26T23:23:52.055Z,11.53
2023-03-26T23:26:19.511Z,4.77
2023-03-26T23:28:46.953Z,8.77
2023-03-26T23:31:14.365Z,2.47
2023-03-26T23:33:50.286Z,8.93
2023-03-26T23:36:21.016Z,5.90
2023-03-26T23:38:49.800Z,6.43
2023-03-26T23:41:22.819Z,10.07
2023-03-26T23:43:55.578Z,5.70
2023-03-26T23:46:30.879Z,7.03
2023-03-26T23:49:05.023Z,5.63
2023-03-26T23:51:35.999Z,4.73
2023-03-26T23:54:05.141Z,5.57
2023-03-26T23:56:32.558Z,5.77
2023-03-26T23:59:00.628Z,7.30
